Monday, November 20, 2017, 7:38 AM GMT
Back to Local

CYKZ, Toronto Buttonville

Location: , , Canada Lat: 43.867
Local Time: 7:38 AM GMT ( 7:38 GMT) Lon: -79.367
Time Zone: GMT Elev: 649 ft

Show me the last for .
Show Decoded

2017-11-20 07:00 METAR CYKZ 200700Z 26004KT 220V290 15SM BKN030 BKN062 M02/M06 A2985 RMK SC5SC2
                 SLP118 =
2017-11-20 06:53 METAR CYKZ 200653Z 26004KT 220V290 15SM BKN030 BKN060 M02/M06 A2985 RMK SC6SC1
                 SLP118 =
2017-11-20 06:00 METAR CYKZ 200600Z 29006KT 240V300 15SM -SN BKN030 OVC055 M02/M06 A2984 RMK
                 SC5SC3 SLP115 =
2017-11-20 05:07 METAR CYKZ 200507Z 26006KT 12SM -SN BKN030 OVC055 M02/M06 A2983 RMK SC5SC3
                 SLP112 =
2017-11-20 05:00 METAR CYKZ 200500Z 27005KT 230V300 15SM BKN035 OVC055 M02/M06 A2983 RMK SC5SC3
                 SLP111 =
2017-11-20 04:41 METAR CYKZ 200441Z 27005KT 230V300 15SM BKN035 OVC060 M02/M06 A2983 RMK SC5SC3
                 SLP109 =
2017-11-20 04:00 METAR CYKZ 200400Z 27007KT 10SM -SN OVC040 M02/M06 A2982 RMK SC8 SLP106 =
2017-11-20 03:00 METAR CYKZ 200300Z 28005KT 250V310 15SM -SN OVC040 M02/M07 A2981 RMK SC8 SLP105
                 =
2017-11-20 02:35 METAR CYKZ 200235Z 27005KT 15SM -SN OVC040 M02/M07 A2981 RMK SC8 SLP104 =
2017-11-20 02:25 METAR CYKZ 200225Z 29007KT 15SM BKN040 OVC055 M02/M07 A2981 RMK SC7SC1 SLP103 =
2017-11-20 02:00 METAR CYKZ 200200Z 28007KT 15SM -SN BKN040 OVC055 M02/M07 A2980 RMK SC6SC2 PCPN
                 VRY LGT SLP100 =
2017-11-20 01:00 METAR CYKZ 200100Z 29009G15KT 15SM SCT055 M02/M08 A2978 RMK SC4 SLP096 =
2017-11-20 00:00 METAR CYKZ 200000Z 30010G19KT 270V330 15SM FEW020 M02/M08 A2977 RMK CF1 CF TR
                 SLP091 =
2017-11-19 23:00 METAR CYKZ 192300Z 30012G22KT 15SM FEW025 M01/M08 A2975 RMK CU1 SLP082 =
2017-11-19 22:00 METAR CYKZ 192200Z 30015G20KT 15SM FEW015 SCT130 M01/M05 A2972 RMK SC1AC3 SLP073
                 =
2017-11-19 21:46 METAR CYKZ 192146Z 30009G21KT 15SM FEW008 BKN018 M01/M04 A2972 RMK SF2SC5 SLP072
                 =
2017-11-19 21:39 METAR CYKZ 192139Z 30015G25KT 3/4SM -SN BKN012 M00/M04 A2972 RMK SN6SC1 PRESRR
                 SLP073 =
2017-11-19 21:35 METAR CYKZ 192135Z 31016G25KT 5SM -SN BKN018 00/M04 A2971 RMK SC7 PRESRR SLP071
                 =
2017-11-19 21:00 METAR CYKZ 192100Z 30014G20KT 260V350 15SM FEW026 BKN073 01/M04 A2968 RMK CU2AC5
                 SLP059 =
2017-11-19 20:19 METAR CYKZ 192019Z CCA 30009G18KT 10SM -SN OVC020 02/M03 A2966 RMK SC8 SLP053 =
2017-11-19 20:00 METAR CYKZ 192000Z 30013G19KT 15SM SCT024 OVC079 02/M04 A2965 RMK CU3AC5 SLP050
                 =
2017-11-19 19:00 METAR CYKZ 191900Z 31011G24KT 15SM BKN025 OVC078 02/M04 A2964 RMK SC5AC3 SLP045
                 =
2017-11-19 18:00 METAR CYKZ 191800Z 32019G24KT 280V340 15SM SCT026 BKN035 BKN240 03/M04 A2962 RMK
                 CU3SC2CI2 SLP040 =
2017-11-19 17:00 METAR CYKZ 191700Z 30011G20KT 15SM FEW029 BKN035 BKN220 03/M03 A2962 RMK
                 CU1SC5CI1 SLP037 =
2017-11-19 16:00 METAR CYKZ 191600Z 32012G20KT 270V330 15SM SCT016 BKN034 03/M02 A2961 RMK CU3SC4
                 SLP033 =
2017-11-19 15:00 METAR CYKZ 191500Z 31013G20KT 15SM SCT010 BKN025 02/M01 A2958 RMK SC4SC3 SLP025
                 =
2017-11-19 14:41 METAR CYKZ 191441Z 32017G22KT 270V340 15SM SCT008 BKN039 01/M00 A2957 RMK SC4SC3
                 SLP021 =
2017-11-19 14:00 METAR CYKZ 191400Z 30008KT 7SM -SN OVC010 01/M00 A2956 RMK SC8 SLP017 =
2017-11-19 13:25 METAR CYKZ 191325Z 30005KT 10SM -SN OVC010 00/M01 A2954 RMK SC8 SLP012 =
2017-11-19 13:00 METAR CYKZ 191300Z 30007KT 1 1/2SM -SN OVC009 00/M01 A2953 RMK SN7SC1 SLP008 =
2017-11-19 12:47 METAR CYKZ 191247Z 32009G15KT 2SM -SN OVC011 00/M02 A2953 RMK SN4SC4 VIS E HIER
                 SLP006 =
2017-11-19 12:29 METAR CYKZ 191229Z 31009KT 10SM BKN012 00/M02 A2952 RMK SC7 PRESRR SLP002 =
2017-11-19 12:00 METAR CYKZ 191200Z 32015G20KT 15SM SCT016 SCT030 BKN038 00/M02 A2949 RMK
                 SC3SC1SC3 SLP994 =
2017-11-19 11:00 METAR CYKZ 191100Z 32011G20KT 15SM BKN016 00/M02 A2945 RMK SC7 SLP979 =
2017-11-19 10:00 METAR CYKZ 191000Z 33016G24KT 15SM SCT012 OVC038 01/M02 A2939 RMK SC3SC5 PRESRR
                 SLP959 =
2017-11-19 09:00 METAR CYKZ 190900Z 32016G25KT 12SM -SN BKN009 OVC018 00/M01 A2933 RMK SC6SC2
                 PRESRR SLP940 =
2017-11-19 08:00 METAR CYKZ 190800Z 33018G26KT 4SM -SN OVC008 00/M01 A2927 RMK SC8 PRESRR SLP918
                 =

Support USWX by starting your Amazon purchase here.